Time;durP1;ratioP1;P1;durP2;ratioP2;P2;SDS_P1;SDS_P2;PMS_P1;PMS_P2;Temp;Humidity;BMP_temperature;BMP_pressure;BME280_temperature;BME280_humidity;BME280_pressure;Samples;Min_cycle;Max_cycle;Signal;HPM_P1;HPM_P2
2023/12/28 00:00:39;;;;;;;3.47;2.03;;;;;;;9.42;92.18;100857.03;5074169;28;20121;-80
2023/12/28 00:03:05;;;;;;;5.15;2.53;;;;;;;9.34;93.20;100858.94;5074246;28;20044;-80
2023/12/28 00:05:31;;;;;;;3.13;2.25;;;;;;;9.51;92.04;100862.16;5074063;28;20041;-81
2023/12/28 00:07:59;;;;;;;3.53;2.60;;;;;;;9.40;93.21;100870.28;5074393;28;20068;-80
2023/12/28 00:10:26;;;;;;;4.35;2.35;;;;;;;9.35;93.91;100860.69;5074016;28;20078;-80
2023/12/28 00:12:51;;;;;;;3.47;2.35;;;;;;;9.30;94.63;100873.97;5075527;28;20055;-80
2023/12/28 00:15:17;;;;;;;3.28;2.20;;;;;;;9.44;93.80;100866.66;5074142;28;20049;-81
2023/12/28 00:17:43;;;;;;;3.53;2.33;;;;;;;9.31;95.04;100870.44;5074186;28;20028;-80
2023/12/28 00:20:09;;;;;;;5.30;2.67;;;;;;;9.31;95.16;100878.34;5075632;28;20537;-80
2023/12/28 00:22:37;;;;;;;3.00;2.00;;;;;;;9.40;94.47;100867.66;5075356;28;20494;-80
2023/12/28 00:25:03;;;;;;;4.88;2.20;;;;;;;9.39;94.77;100870.31;5073998;28;20127;-80
2023/12/28 00:27:29;;;;;;;4.07;2.40;;;;;;;9.37;95.51;100880.91;5075673;28;20138;-80
2023/12/28 00:29:54;;;;;;;4.88;2.38;;;;;;;9.29;96.39;100874.00;5074400;28;20041;-80
2023/12/28 00:32:20;;;;;;;5.13;2.45;;;;;;;9.23;97.01;100896.97;5056943;28;20102;-80
2023/12/28 00:34:45;;;;;;;4.18;2.30;;;;;;;9.25;96.93;100894.31;5053895;28;20044;-80
2023/12/28 00:37:11;;;;;;;5.63;2.65;;;;;;;9.12;97.84;100884.81;5049064;28;20044;-80
2023/12/28 00:39:36;;;;;;;3.65;2.25;;;;;;;9.26;97.56;100902.22;5073892;28;20062;-81
2023/12/28 00:42:03;;;;;;;3.53;2.33;;;;;;;9.27;97.37;100900.44;5073395;28;20062;-80
2023/12/28 00:44:28;;;;;;;6.15;2.28;;;;;;;9.16;98.77;100890.03;5090079;28;20336;-80
2023/12/28 00:46:54;;;;;;;5.13;2.20;;;;;;;9.19;98.67;100899.69;5072210;28;20037;-80
2023/12/28 00:49:19;;;;;;;3.95;2.17;;;;;;;9.13;99.41;100908.59;5072984;28;20135;-80
2023/12/28 00:51:45;;;;;;;3.72;2.33;;;;;;;9.13;100.00;100916.50;5036979;28;20037;-80
2023/12/28 00:54:10;;;;;;;2.95;1.83;;;;;;;9.23;99.15;100917.25;5047960;28;20128;-81
2023/12/28 00:56:36;;;;;;;3.63;2.50;;;;;;;9.12;100.00;100911.25;5067632;28;20381;-81
2023/12/28 00:59:02;;;;;;;4.75;2.40;;;;;;;9.14;100.00;100914.72;5053067;28;20063;-81
2023/12/28 01:01:30;;;;;;;8.07;2.60;;;;;;;9.20;99.98;100918.16;5079018;28;20052;-81
2023/12/28 01:03:56;;;;;;;5.40;2.47;;;;;;;9.19;100.00;100921.69;5054969;28;20058;-81
2023/12/28 01:06:21;;;;;;;8.35;2.55;;;;;;;9.10;100.00;100919.22;5071834;28;20394;-81
2023/12/28 01:08:47;;;;;;;5.00;2.50;;;;;;;9.17;100.00;100926.16;5055454;28;20113;-80
2023/12/28 01:11:12;;;;;;;5.57;2.22;;;;;;;9.16;100.00;100912.94;5073877;28;20541;-80
2023/12/28 01:13:39;;;;;;;5.25;2.40;;;;;;;9.12;100.00;100925.31;5089817;28;20380;-81
2023/12/28 01:16:06;;;;;;;3.45;2.63;;;;;;;9.12;100.00;100925.31;5074078;28;20047;-80
2023/12/28 01:18:32;;;;;;;4.85;2.30;;;;;;;9.13;100.00;100924.44;5074141;28;20438;-81
2023/12/28 01:20:58;;;;;;;3.58;2.20;;;;;;;9.22;100.00;100934.88;5052682;28;20045;-80
2023/12/28 01:23:23;;;;;;;2.83;2.13;;;;;;;9.22;100.00;100932.25;5036067;28;20099;-81
2023/12/28 01:25:49;;;;;;;3.55;2.50;;;;;;;9.29;100.00;100940.06;5055971;28;20048;-80
2023/12/28 01:28:14;;;;;;;5.45;2.80;;;;;;;9.27;100.00;100934.78;5052722;28;20095;-81
2023/12/28 01:30:41;;;;;;;2.60;1.92;;;;;;;9.34;100.00;100948.78;5060848;28;20488;-81
2023/12/28 01:33:06;;;;;;;4.43;1.85;;;;;;;9.35;100.00;100950.56;5073699;28;20116;-81
2023/12/28 01:35:32;;;;;;;6.60;2.60;;;;;;;9.35;100.00;100943.50;5089235;28;20142;-80
2023/12/28 01:38:00;;;;;;;7.90;2.60;;;;;;;9.35;100.00;100946.13;5072402;28;20104;-81
2023/12/28 01:40:25;;;;;;;5.15;2.50;;;;;;;9.28;100.00;100949.75;5089168;28;20082;-80
2023/12/28 01:42:52;;;;;;;5.97;2.80;;;;;;;9.36;100.00;100947.88;5055849;28;20502;-80
2023/12/28 01:45:17;;;;;;;5.25;2.70;;;;;;;9.24;100.00;100948.06;5072419;28;20041;-80
2023/12/28 01:47:43;;;;;;;7.97;2.97;;;;;;;9.23;100.00;100948.97;5055091;28;20452;-80
2023/12/28 01:50:09;;;;;;;3.05;1.98;;;;;;;9.22;100.00;100953.38;5071881;28;20063;-81
2023/12/28 01:52:35;;;;;;;6.35;2.10;;;;;;;9.31;100.00;100949.72;5071699;28;20189;-80
2023/12/28 01:55:01;;;;;;;4.93;2.42;;;;;;;9.16;100.00;100953.44;5071917;28;20076;-80
2023/12/28 01:57:27;;;;;;;4.90;2.38;;;;;;;9.16;100.00;100953.44;5072137;28;20044;-80
2023/12/28 01:59:53;;;;;;;6.22;2.20;;;;;;;9.15;100.00;100956.09;5071273;28;20036;-80
2023/12/28 02:02:19;;;;;;;3.40;2.40;;;;;;;9.32;100.00;100966.44;5071753;28;20032;-80
2023/12/28 02:04:45;;;;;;;5.72;2.70;;;;;;;9.14;100.00;100957.00;5072868;28;20040;-80
2023/12/28 02:07:11;;;;;;;7.65;3.08;;;;;;;9.12;100.00;100959.66;5055185;28;20037;-81
2023/12/28 02:09:36;;;;;;;5.43;2.30;;;;;;;9.21;100.00;100951.63;5088550;28;20032;-80
2023/12/28 02:12:03;;;;;;;4.93;1.95;;;;;;;9.17;100.00;100959.59;5072789;28;20799;-80
2023/12/28 02:14:28;;;;;;;4.75;2.30;;;;;;;9.24;100.00;100955.97;5088693;28;20056;-80
2023/12/28 02:17:08;;;;;;;4.30;2.20;;;;;;;9.32;100.00;100966.44;5071226;28;20472;-81
2023/12/28 02:20:10;;;;;;;4.93;2.30;;;;;;;9.15;100.00;100954.34;5071534;28;20422;-81
2023/12/28 02:22:36;;;;;;;4.85;2.30;;;;;;;9.13;100.00;100950.00;4976110;28;20026;-80
2023/12/28 02:25:06;;;;;;;7.03;3.20;;;;;;;9.10;100.00;100944.72;5045831;28;20543;-81
2023/12/28 02:27:33;;;;;;;8.10;2.30;;;;;;;9.16;100.00;100939.38;5088194;28;20531;-80
2023/12/28 02:29:59;;;;;;;8.60;2.17;;;;;;;9.25;100.00;100940.13;5070863;28;20036;-81
2023/12/28 02:32:50;;;;;;;4.78;2.22;;;;;;;9.24;100.00;100948.06;5049890;28;20036;-81
2023/12/28 02:35:27;;;;;;;9.15;2.53;;;;;;;9.28;100.00;100938.31;5072307;28;20115;-80
2023/12/28 02:37:56;;;;;;;7.78;2.03;;;;;;;9.27;100.00;100940.06;5071101;28;20028;-81
2023/12/28 02:40:23;;;;;;;6.82;2.40;;;;;;;9.28;100.00;100933.03;5072439;28;20032;-80
2023/12/28 02:42:49;;;;;;;6.40;2.20;;;;;;;9.23;100.00;100930.47;5072233;28;20032;-81
2023/12/28 02:45:15;;;;;;;5.10;2.15;;;;;;;9.17;100.00;100941.09;5070477;28;20392;-80
2023/12/28 02:47:40;;;;;;;8.70;2.25;;;;;;;9.23;100.00;100936.63;5054129;28;20062;-81
2023/12/28 02:50:06;;;;;;;6.50;2.30;;;;;;;9.24;100.00;100930.41;5087763;28;20098;-80
2023/12/28 02:52:32;;;;;;;4.28;2.20;;;;;;;9.25;100.00;100941.88;5070955;28;20041;-80
2023/12/28 02:54:57;;;;;;;8.23;2.30;;;;;;;9.30;100.00;100937.41;5070756;28;20036;-80
2023/12/28 02:57:23;;;;;;;6.60;2.20;;;;;;;9.31;100.00;100927.69;5070803;28;20393;-81
2023/12/28 02:59:48;;;;;;;6.93;2.03;;;;;;;9.24;100.00;100918.97;5072179;28;20072;-81
2023/12/28 03:02:14;;;;;;;4.15;1.95;;;;;;;9.17;100.00;100918.22;5070652;28;20391;-81
2023/12/28 03:04:40;;;;;;;7.03;2.90;;;;;;;9.23;100.00;100927.81;5050723;28;20139;-80
2023/12/28 03:07:08;;;;;;;5.38;1.70;;;;;;;9.21;100.00;100919.91;5051019;28;20533;-80
2023/12/28 03:09:34;;;;;;;5.68;2.15;;;;;;;9.19;100.00;100926.97;5070734;28;20075;-80
2023/12/28 03:12:00;;;;;;;6.88;2.50;;;;;;;9.19;100.00;100929.63;5054110;28;20480;-80
2023/12/28 03:14:26;;;;;;;5.40;2.40;;;;;;;9.16;100.00;100924.38;5070629;28;20028;-81
2023/12/28 03:16:51;;;;;;;7.28;2.42;;;;;;;9.14;100.00;100926.16;5071991;28;20048;-80
2023/12/28 03:19:17;;;;;;;4.53;2.13;;;;;;;9.11;100.00;100928.00;5071706;28;20047;-80
2023/12/28 03:21:43;;;;;;;4.82;1.98;;;;;;;9.14;100.00;100931.44;5070583;28;20075;-80
2023/12/28 03:24:08;;;;;;;4.78;1.90;;;;;;;9.33;100.00;100947.06;5071812;28;20055;-81
2023/12/28 03:26:40;;;;;;;6.00;2.13;;;;;;;9.37;100.00;100957.56;5087275;28;20079;-81
2023/12/28 03:29:07;;;;;;;7.47;2.53;;;;;;;9.37;100.00;100954.91;5071014;28;20090;-80
2023/12/28 03:31:32;;;;;;;4.07;1.83;;;;;;;9.39;100.00;100957.53;5063525;28;20024;-80
2023/12/28 03:33:58;;;;;;;5.53;2.08;;;;;;;9.44;100.00;100945.09;5070546;28;20047;-80
2023/12/28 03:36:23;;;;;;;8.00;2.40;;;;;;;9.53;100.00;100926.47;5071664;28;20056;-80
2023/12/28 03:38:49;;;;;;;6.03;2.28;;;;;;;9.70;100.00;100936.78;5033854;28;20527;-81
2023/12/28 03:41:20;;;;;;;8.05;2.40;;;;;;;9.49;100.00;100927.41;5069807;28;20054;-80
2023/12/28 03:43:47;;;;;;;5.25;1.92;;;;;;;9.57;100.00;100928.16;5069259;28;20047;-80
2023/12/28 03:46:13;;;;;;;5.03;2.30;;;;;;;9.60;99.99;100935.19;5076028;28;20086;-81
2023/12/28 03:48:38;;;;;;;5.18;2.35;;;;;;;9.56;99.88;100925.53;5071070;28;20109;-81
2023/12/28 03:51:05;;;;;;;10.50;2.40;;;;;;;9.58;99.34;100911.41;5035448;28;20131;-81
2023/12/28 03:53:31;;;;;;;7.72;2.70;;;;;;;9.63;99.59;100908.69;5067073;28;20538;-81
2023/12/28 03:55:58;;;;;;;9.30;2.45;;;;;;;9.62;98.74;100902.53;5070206;28;20383;-81
2023/12/28 03:58:25;;;;;;;7.40;2.40;;;;;;;9.61;99.25;100921.03;5053338;28;20420;-81
2023/12/28 04:00:51;;;;;;;11.00;2.40;;;;;;;9.53;98.90;100905.31;5061735;28;20091;-80
2023/12/28 04:03:16;;;;;;;7.45;2.50;;;;;;;9.61;98.71;100923.69;5067821;28;20021;-81
2023/12/28 04:05:43;;;;;;;8.02;2.60;;;;;;;9.79;96.69;100912.81;5069952;28;20041;-81
2023/12/28 04:08:08;;;;;;;6.18;2.28;;;;;;;9.68;97.19;100927.97;5053273;28;20499;-81
2023/12/28 04:10:34;;;;;;;12.23;2.83;;;;;;;9.53;98.62;100923.81;5070057;28;20071;-80
2023/12/28 04:13:00;;;;;;;7.93;2.22;;;;;;;9.63;97.67;100909.53;5086833;28;20131;-80
2023/12/28 04:15:26;;;;;;;13.18;2.47;;;;;;;9.61;97.76;100932.50;5086723;28;20032;-81
2023/12/28 04:17:52;;;;;;;5.53;1.90;;;;;;;9.62;97.47;100926.31;5070016;28;20425;-81
2023/12/28 04:20:17;;;;;;;10.23;2.60;;;;;;;9.83;95.21;100929.50;5069802;28;20032;-81
2023/12/28 04:22:44;;;;;;;10.13;2.40;;;;;;;9.73;95.90;100936.72;5070167;28;20510;-81
2023/12/28 04:25:10;;;;;;;11.43;2.40;;;;;;;9.69;96.63;100938.53;5086342;28;20071;-80
2023/12/28 04:27:37;;;;;;;7.00;2.58;;;;;;;9.77;96.14;100917.25;5086795;28;20506;-81
2023/12/28 04:30:05;;;;;;;10.63;2.60;;;;;;;9.74;95.81;100919.06;5068795;28;20024;-81
2023/12/28 04:32:32;;;;;;;8.82;2.55;;;;;;;9.65;96.83;100923.63;5049800;28;20068;-80
2023/12/28 04:34:58;;;;;;;8.98;2.47;;;;;;;9.73;95.64;100925.25;5061878;28;20028;-81
2023/12/28 04:37:23;;;;;;;11.75;3.17;;;;;;;9.77;95.27;100925.19;5053520;28;20036;-82
2023/12/28 04:39:49;;;;;;;7.65;2.70;;;;;;;9.89;94.50;100922.34;5038921;28;20041;-81
2023/12/28 04:42:14;;;;;;;8.57;1.90;;;;;;;9.83;94.18;100927.72;5075057;28;20495;-81
2023/12/28 04:44:40;;;;;;;8.77;2.83;;;;;;;9.75;94.25;100948.13;5090452;28;20530;-80
2023/12/28 04:47:07;;;;;;;7.90;2.53;;;;;;;9.80;93.23;100932.19;5057373;28;20048;-81
2023/12/28 04:49:33;;;;;;;10.32;2.60;;;;;;;9.82;93.45;100939.22;5053138;28;20512;-81
2023/12/28 04:52:00;;;;;;;13.88;3.45;;;;;;;9.97;92.09;100931.91;5082281;28;20064;-82
2023/12/28 04:54:25;;;;;;;10.38;2.58;;;;;;;9.86;93.27;100940.00;5040049;28;20106;-81
2023/12/28 04:56:51;;;;;;;9.88;2.28;;;;;;;9.86;93.43;100946.16;5056625;28;20040;-81
2023/12/28 04:59:17;;;;;;;8.75;2.40;;;;;;;9.85;93.33;100938.28;5056545;28;20043;-81
2023/12/28 05:01:44;;;;;;;10.05;2.42;;;;;;;9.90;93.17;100931.13;5053176;28;20029;-81
2023/12/28 05:04:10;;;;;;;12.63;2.92;;;;;;;9.92;93.07;100942.56;5067977;28;20448;-82
2023/12/28 05:06:35;;;;;;;8.27;2.15;;;;;;;9.94;92.83;100939.88;5073073;28;20032;-81
2023/12/28 05:09:01;;;;;;;6.70;2.03;;;;;;;9.93;92.51;100938.13;5073038;28;20043;-80
2023/12/28 05:11:27;;;;;;;8.30;2.38;;;;;;;9.96;92.35;100956.59;5072833;28;20480;-82
2023/12/28 05:13:53;;;;;;;11.48;3.40;;;;;;;10.01;91.80;100952.97;5073183;28;20059;-80
2023/12/28 05:16:19;;;;;;;11.38;2.67;;;;;;;9.99;92.09;100948.59;5056333;28;20037;-80
2023/12/28 05:18:45;;;;;;;9.80;2.90;;;;;;;10.03;91.46;100964.41;5072887;28;20040;-81
2023/12/28 05:21:12;;;;;;;6.45;2.25;;;;;;;10.15;90.10;100946.56;5072990;28;20120;-82
2023/12/28 05:23:37;;;;;;;8.13;2.70;;;;;;;10.03;90.63;100958.25;5073986;28;20036;-80
2023/12/28 05:26:03;;;;;;;7.13;2.50;;;;;;;10.08;89.64;100946.66;5073961;28;20499;-81
2023/12/28 05:28:28;;;;;;;11.45;2.45;;;;;;;9.94;90.67;100945.16;5073896;28;20039;-81
2023/12/28 05:30:54;;;;;;;12.38;2.92;;;;;;;9.89;90.43;100950.53;5072540;28;20052;-81
2023/12/28 05:33:19;;;;;;;11.27;3.20;;;;;;;9.92;89.62;100947.00;5072467;28;20056;-81
2023/12/28 05:35:45;;;;;;;17.52;3.53;;;;;;;9.90;89.69;100954.94;5035993;28;20032;-81
2023/12/28 05:38:10;;;;;;;10.50;2.42;;;;;;;9.81;90.56;100957.72;5071004;28;20387;-80
2023/12/28 05:40:36;;;;;;;10.25;2.65;;;;;;;9.85;90.31;100952.38;5072423;28;20407;-80
2023/12/28 05:43:01;;;;;;;7.97;2.40;;;;;;;9.79;91.26;100959.53;5072367;28;20041;-80
2023/12/28 05:45:27;;;;;;;13.15;3.08;;;;;;;9.98;89.65;100960.97;5071421;28;20036;-81
2023/12/28 05:47:52;;;;;;;8.65;2.17;;;;;;;9.93;90.08;100957.53;5073560;28;20047;-81
2023/12/28 05:50:18;;;;;;;8.68;2.90;;;;;;;9.85;90.76;100955.00;5071938;28;20128;-81
2023/12/28 05:52:43;;;;;;;11.00;2.80;;;;;;;10.01;89.44;100958.25;5071451;28;20036;-81
2023/12/28 05:55:09;;;;;;;10.63;3.25;;;;;;;9.88;90.42;100951.44;5072123;28;20048;-81
2023/12/28 05:57:34;;;;;;;10.45;2.25;;;;;;;9.76;91.46;100955.16;5072221;28;20049;-81
2023/12/28 05:59:59;;;;;;;10.00;2.67;;;;;;;10.03;89.08;100964.41;5071995;28;20116;-81
2023/12/28 06:02:25;;;;;;;11.57;2.53;;;;;;;9.86;90.58;100967.31;5072115;28;20052;-81
2023/12/28 06:04:50;;;;;;;13.32;3.05;;;;;;;9.87;91.24;100968.22;5072983;28;20041;-81
2023/12/28 06:07:16;;;;;;;14.75;2.97;;;;;;;9.78;91.62;100974.53;5073355;28;20068;-81
2023/12/28 06:09:42;;;;;;;9.80;2.80;;;;;;;9.81;91.23;100968.31;5073036;28;20032;-81
2023/12/28 06:12:07;;;;;;;14.82;2.67;;;;;;;9.82;91.58;100970.09;5088809;28;20654;-81
2023/12/28 06:14:33;;;;;;;13.65;2.63;;;;;;;9.80;91.68;100966.59;5071796;28;20519;-80
2023/12/28 06:16:58;;;;;;;9.48;2.40;;;;;;;9.92;90.49;100973.44;5071658;28;20025;-81
2023/12/28 06:19:24;;;;;;;13.27;3.78;;;;;;;9.86;91.49;100959.41;5071743;28;20162;-81
2023/12/28 06:21:49;;;;;;;10.20;2.72;;;;;;;9.86;91.22;100955.88;5071546;28;20029;-81
2023/12/28 06:24:15;;;;;;;22.80;3.25;;;;;;;9.86;91.31;100971.75;5071724;28;20458;-80
2023/12/28 06:26:41;;;;;;;13.18;3.53;;;;;;;9.91;90.84;100980.47;5071310;28;20445;-81
2023/12/28 06:29:08;;;;;;;15.57;3.17;;;;;;;9.89;90.89;100975.25;5071666;28;20075;-81
2023/12/28 06:31:35;;;;;;;15.80;3.40;;;;;;;9.89;91.35;100987.56;5043233;28;20492;-81
2023/12/28 06:34:03;;;;;;;20.25;3.72;;;;;;;9.97;89.96;100979.53;5072635;28;20387;-81
2023/12/28 06:36:28;;;;;;;16.60;3.03;;;;;;;9.98;89.88;100986.56;5071781;28;20029;-81
2023/12/28 06:38:54;;;;;;;11.02;2.50;;;;;;;10.04;89.64;100997.91;5070578;28;20407;-81
2023/12/28 06:41:19;;;;;;;11.50;3.20;;;;;;;10.15;88.98;100981.84;5054728;28;20127;-81
2023/12/28 06:43:45;;;;;;;16.70;3.38;;;;;;;10.04;89.36;100989.06;5067851;28;20058;-81
2023/12/28 06:46:10;;;;;;;11.85;3.15;;;;;;;9.98;90.13;100991.84;5070542;28;20460;-82
2023/12/28 06:48:37;;;;;;;22.45;3.65;;;;;;;9.96;89.85;100980.41;5052152;28;20056;-81
2023/12/28 06:51:03;;;;;;;20.23;3.53;;;;;;;9.97;89.47;101003.34;5072231;28;20041;-81
2023/12/28 06:53:28;;;;;;;16.33;3.30;;;;;;;10.03;88.88;100995.28;5054552;28;20040;-81
2023/12/28 06:55:54;;;;;;;12.88;2.95;;;;;;;9.96;89.04;100991.00;5071262;28;20487;-81
2023/12/28 06:58:19;;;;;;;12.05;2.45;;;;;;;9.98;88.98;100994.50;5071045;28;20107;-81
2023/12/28 07:00:45;;;;;;;22.98;3.88;;;;;;;9.92;88.93;101008.69;5070951;28;20484;-82
2023/12/28 07:03:10;;;;;;;15.18;3.30;;;;;;;10.09;87.44;100984.59;5064277;28;20058;-81
2023/12/28 07:05:36;;;;;;;13.52;3.50;;;;;;;10.14;86.82;101019.81;5070312;28;20051;-75
2023/12/28 07:08:02;;;;;;;17.67;3.55;;;;;;;9.96;88.26;100991.00;5070838;28;20032;-76
2023/12/28 07:10:28;;;;;;;9.88;2.22;;;;;;;9.91;88.40;101006.94;5034408;28;20125;-77
2023/12/28 07:12:53;;;;;;;12.02;3.47;;;;;;;9.93;88.51;101014.84;5060911;28;20074;-77
2023/12/28 07:15:19;;;;;;;14.68;3.10;;;;;;;9.96;88.08;101014.78;5057810;28;20065;-77
2023/12/28 07:17:44;;;;;;;14.02;2.88;;;;;;;9.92;88.28;101026.34;5069961;28;20483;-77
2023/12/28 07:20:10;;;;;;;17.45;3.45;;;;;;;9.92;88.17;101029.88;5070201;28;20043;-76
2023/12/28 07:22:37;;;;;;;18.77;3.78;;;;;;;9.95;88.29;101021.88;5056236;28;20472;-76
2023/12/28 07:25:06;;;;;;;14.73;2.97;;;;;;;9.94;88.39;101021.88;5062782;28;20375;-77
2023/12/28 07:27:32;;;;;;;13.25;2.47;;;;;;;9.83;89.41;101032.66;5067112;28;20476;-76
2023/12/28 07:29:58;;;;;;;12.63;2.97;;;;;;;10.13;87.53;101033.91;5055566;28;21321;-78
2023/12/28 07:32:25;;;;;;;7.80;2.45;;;;;;;10.07;87.74;101020.81;5063512;28;20097;-76
2023/12/28 07:34:54;;;;;;;18.67;4.10;;;;;;;9.93;89.10;101033.38;5033861;28;20076;-78
2023/12/28 07:37:20;;;;;;;17.40;3.63;;;;;;;9.85;89.32;101042.31;5057173;28;20175;-78
2023/12/28 07:39:47;;;;;;;13.75;3.08;;;;;;;9.88;89.31;101058.13;5065353;28;20127;-78
2023/12/28 07:42:12;;;;;;;19.52;3.33;;;;;;;9.99;88.47;101044.75;5033111;28;20432;-76
2023/12/28 07:44:39;;;;;;;15.88;3.10;;;;;;;9.93;89.19;101052.75;5061459;28;20189;-79
2023/12/28 07:47:04;;;;;;;17.08;3.35;;;;;;;9.85;89.97;101066.09;5051734;28;20060;-78
2023/12/28 07:49:31;;;;;;;15.30;2.97;;;;;;;9.84;90.34;101088.19;5069773;28;20492;-78
2023/12/28 07:51:56;;;;;;;14.05;3.33;;;;;;;9.96;89.45;101070.34;5069421;28;20488;-77
2023/12/28 07:54:22;;;;;;;16.40;3.47;;;;;;;9.85;89.81;101074.03;5070079;28;20190;-79
2023/12/28 07:56:47;;;;;;;12.48;3.00;;;;;;;9.78;90.88;101068.88;5069965;28;20108;-80
2023/12/28 07:59:13;;;;;;;15.05;3.15;;;;;;;9.80;90.79;101070.59;5071498;28;20502;-77
2023/12/28 08:01:38;;;;;;;18.10;3.10;;;;;;;9.84;90.32;101077.59;5056360;28;20396;-77
2023/12/28 08:04:04;;;;;;;16.80;3.35;;;;;;;9.81;90.91;101074.09;5070474;28;20458;-77
2023/12/28 08:06:32;;;;;;;16.17;3.67;;;;;;;9.90;90.15;101082.78;5048765;28;20043;-77
2023/12/28 08:09:01;;;;;;;13.63;3.30;;;;;;;9.81;91.06;101077.63;5061508;28;20391;-77
2023/12/28 08:11:27;;;;;;;18.00;4.03;;;;;;;9.86;90.95;101090.78;5068474;28;20045;-78
2023/12/28 08:13:53;;;;;;;12.05;2.90;;;;;;;9.98;90.11;101080.00;5030019;28;20041;-79
2023/12/28 08:16:19;;;;;;;13.20;2.55;;;;;;;9.96;90.41;101081.81;5069240;28;20120;-76
2023/12/28 08:18:45;;;;;;;17.45;3.35;;;;;;;9.80;90.83;101077.66;5075305;28;20123;-77
2023/12/28 08:21:10;;;;;;;21.63;3.85;;;;;;;9.92;90.19;101072.19;5073846;28;20076;-78
2023/12/28 08:23:36;;;;;;;15.10;2.95;;;;;;;9.91;90.20;101078.34;5057497;28;20029;-76
2023/12/28 08:26:02;;;;;;;13.63;3.08;;;;;;;9.79;91.25;101060.03;5073792;28;20523;-78
2023/12/28 08:28:28;;;;;;;22.40;3.78;;;;;;;9.80;91.10;101057.38;5073671;28;20422;-77
2023/12/28 08:30:54;;;;;;;18.63;3.45;;;;;;;9.79;91.57;101062.66;5055511;28;20028;-77
2023/12/28 08:33:20;;;;;;;13.35;3.05;;;;;;;9.78;91.48;101072.38;5074318;28;20052;-77
2023/12/28 08:35:45;;;;;;;16.05;2.80;;;;;;;9.89;90.89;101066.91;5073498;28;20039;-78
2023/12/28 08:38:11;;;;;;;21.27;3.65;;;;;;;9.76;92.01;101094.47;5070003;28;20607;-77
2023/12/28 08:40:36;;;;;;;12.82;2.38;;;;;;;9.81;91.34;101077.63;5033264;28;20037;-78
2023/12/28 08:43:02;;;;;;;10.00;2.92;;;;;;;9.90;90.94;101085.44;5067038;28;20115;-77
2023/12/28 08:45:27;;;;;;;14.30;3.10;;;;;;;9.96;89.67;101096.81;5072599;28;20083;-78
2023/12/28 08:47:53;;;;;;;15.27;3.05;;;;;;;10.00;89.30;101096.75;5053070;28;20037;-79
2023/12/28 08:50:18;;;;;;;22.23;4.80;;;;;;;9.95;89.47;101097.72;5054459;28;20108;-77
2023/12/28 08:52:44;;;;;;;19.55;4.32;;;;;;;9.86;90.56;101088.13;5074597;28;20036;-78
2023/12/28 08:55:09;;;;;;;13.00;3.05;;;;;;;10.04;89.16;101100.19;5037028;28;20039;-77
2023/12/28 08:57:35;;;;;;;17.70;4.00;;;;;;;9.96;90.15;101108.25;5069870;28;20127;-78
2023/12/28 09:00:02;;;;;;;18.58;3.47;;;;;;;9.85;90.99;101104.91;5043426;28;20116;-77
2023/12/28 09:02:29;;;;;;;18.55;3.10;;;;;;;9.97;90.78;101123.25;5071799;28;20387;-78
2023/12/28 09:04:54;;;;;;;13.32;3.47;;;;;;;10.07;89.82;101111.63;5072480;28;20112;-77
2023/12/28 09:07:20;;;;;;;11.65;2.92;;;;;;;9.98;90.72;101098.53;5049308;28;20084;-76
2023/12/28 09:09:46;;;;;;;15.05;3.83;;;;;;;9.99;90.03;101112.63;5037357;28;20520;-78
2023/12/28 09:12:11;;;;;;;17.52;3.55;;;;;;;9.91;91.26;101125.97;5073916;28;20104;-78
2023/12/28 09:14:37;;;;;;;14.65;2.90;;;;;;;9.83;91.49;101112.88;5071658;28;20048;-77
2023/12/28 09:17:03;;;;;;;8.80;2.17;;;;;;;9.81;91.63;101134.94;5069076;28;20076;-77
2023/12/28 09:19:29;;;;;;;18.02;3.67;;;;;;;9.97;89.89;101125.91;5074108;28;20044;-77
2023/12/28 09:21:54;;;;;;;14.63;3.20;;;;;;;9.87;91.05;101119.00;5070691;28;20040;-76
2023/12/28 09:24:20;;;;;;;12.88;2.95;;;;;;;9.88;91.27;101116.31;5063833;28;20060;-75
2023/12/28 09:26:45;;;;;;;13.30;3.20;;;;;;;10.08;90.24;101125.72;5071731;28;20052;-76
2023/12/28 09:29:11;;;;;;;11.73;3.05;;;;;;;10.27;88.69;101132.50;5065462;28;20029;-76
2023/12/28 09:31:37;;;;;;;20.25;3.55;;;;;;;10.08;89.10;101131.03;5050822;28;20488;-76
2023/12/28 09:34:04;;;;;;;13.52;3.25;;;;;;;9.98;89.87;101138.22;5063137;28;20050;-76
2023/12/28 09:36:30;;;;;;;16.10;3.15;;;;;;;9.95;90.97;101148.00;5055480;28;20436;-76
2023/12/28 09:38:56;;;;;;;13.50;2.65;;;;;;;9.95;90.56;101145.34;5055864;28;20074;-78
2023/12/28 09:41:26;;;;;;;14.45;3.10;;;;;;;10.22;87.82;101147.56;5072708;28;20131;-77
2023/12/28 09:44:07;;;;;;;19.25;3.30;;;;;;;10.09;89.18;101146.88;5072194;28;20059;-77
2023/12/28 09:46:32;;;;;;;16.17;4.00;;;;;;;9.99;90.27;101160.25;5069319;28;20040;-76
2023/12/28 09:48:58;;;;;;;19.05;3.42;;;;;;;10.01;89.58;101155.81;5050188;28;20510;-76
2023/12/28 09:51:27;;;;;;;17.15;3.60;;;;;;;10.05;89.37;101162.81;5068819;28;20045;-77
2023/12/28 09:53:53;;;;;;;16.75;4.07;;;;;;;10.04;89.90;101161.97;5063249;28;20041;-76
2023/12/28 09:56:19;;;;;;;14.25;3.17;;;;;;;10.12;89.31;101172.44;5069683;28;20043;-76
2023/12/28 09:58:49;;;;;;;17.25;3.50;;;;;;;10.24;87.62;101181.97;5062477;28;20040;-76
2023/12/28 10:01:15;;;;;;;18.50;3.42;;;;;;;10.11;88.21;101176.84;5071119;28;20036;-78
2023/12/28 10:03:40;;;;;;;18.52;3.47;;;;;;;10.05;88.90;101176.94;5060034;28;20037;-76
2023/12/28 10:06:06;;;;;;;18.25;4.13;;;;;;;10.12;89.00;101167.13;5053663;28;20047;-75
2023/12/28 10:08:31;;;;;;;20.63;4.15;;;;;;;10.05;89.57;101166.34;5055573;28;20049;-76
2023/12/28 10:10:58;;;;;;;17.00;3.58;;;;;;;10.09;89.10;101167.19;5073247;28;20040;-76
2023/12/28 10:13:25;;;;;;;15.93;4.13;;;;;;;10.05;88.54;101161.06;5064210;28;20500;-76
2023/12/28 10:15:51;;;;;;;13.63;2.90;;;;;;;10.11;88.09;101171.56;5053956;28;20063;-76
2023/12/28 10:18:19;;;;;;;22.45;4.30;;;;;;;10.12;88.45;101165.34;5063858;28;20113;-75
2023/12/28 10:20:53;;;;;;;19.63;3.67;;;;;;;10.19;88.62;101181.13;5055009;28;20040;-75
2023/12/28 10:23:19;;;;;;;16.88;3.13;;;;;;;10.21;87.37;101171.41;5072010;28;20024;-76
2023/12/28 10:25:46;;;;;;;18.13;3.10;;;;;;;10.25;86.60;101173.97;5072914;28;20044;-76
2023/12/28 10:28:15;;;;;;;16.40;3.35;;;;;;;10.18;87.17;101161.75;5053211;28;20032;-75
2023/12/28 10:30:41;;;;;;;18.02;3.55;;;;;;;10.27;86.48;101171.31;5067524;28;20028;-76
2023/12/28 10:33:07;;;;;;;18.58;3.13;;;;;;;10.18;87.45;101160.88;5055117;28;20051;-75
2023/12/28 10:35:33;;;;;;;12.02;3.38;;;;;;;10.41;85.85;101153.50;5063257;28;20064;-76
2023/12/28 10:38:04;;;;;;;16.45;4.50;;;;;;;10.21;86.97;101148.47;5065271;28;20505;-75
2023/12/28 10:40:32;;;;;;;19.00;4.88;;;;;;;10.33;85.99;101139.47;5071459;28;20391;-76
2023/12/28 10:43:01;;;;;;;15.48;3.20;;;;;;;10.38;85.24;101147.34;5072607;28;20107;-76
2023/12/28 10:45:29;;;;;;;22.15;3.72;;;;;;;10.29;86.51;101132.50;5070687;28;20041;-75
2023/12/28 10:48:09;;;;;;;10.90;3.20;;;;;;;10.33;85.61;101155.38;5070956;28;20069;-75
2023/12/28 10:50:41;;;;;;;13.43;3.72;;;;;;;10.58;83.54;101155.84;5063195;28;20467;-76
2023/12/28 10:53:46;;;;;;;17.48;3.50;;;;;;;10.48;84.61;101146.31;5059224;28;20037;-76
2023/12/28 10:56:27;;;;;;;18.98;3.50;;;;;;;10.57;84.09;101153.22;5070995;28;20036;-75
2023/12/28 10:59:13;;;;;;;22.13;4.07;;;;;;;10.46;84.01;101151.63;5088173;28;20036;-76
2023/12/28 11:01:41;;;;;;;10.52;3.25;;;;;;;10.45;85.21;101154.31;5087882;28;20114;-77
2023/12/28 11:04:15;;;;;;;14.98;3.30;;;;;;;10.55;84.12;101150.59;5072347;28;20116;-76
2023/12/28 11:06:42;;;;;;;12.65;3.25;;;;;;;10.57;83.98;101150.59;5058761;28;20027;-76
2023/12/28 11:09:09;;;;;;;13.85;3.75;;;;;;;10.50;84.46;101150.66;5033037;28;20123;-76
2023/12/28 11:11:36;;;;;;;23.00;3.17;;;;;;;10.47;84.69;101137.50;5060298;28;20059;-76
2023/12/28 11:14:03;;;;;;;14.73;3.10;;;;;;;10.45;85.25;101139.28;5070887;28;20490;-75
2023/12/28 11:16:28;;;;;;;17.77;3.67;;;;;;;10.58;84.45;101126.69;5087628;28;20464;-76
2023/12/28 11:18:55;;;;;;;17.15;3.15;;;;;;;10.65;83.99;101130.13;5072182;28;20070;-76
2023/12/28 11:21:22;;;;;;;26.38;3.97;;;;;;;10.60;83.84;101127.56;5087367;28;20055;-77